Time;durP1;ratioP1;P1;durP2;ratioP2;P2;SDS_P1;SDS_P2;PMS_P1;PMS_P2;Temp;Humidity;BMP_temperature;BMP_pressure;BME280_temperature;BME280_humidity;BME280_pressure;Samples;Min_cycle;Max_cycle;Signal;HPM_P1;HPM_P2
2021/12/26 00:01:34;;;;;;;97.82;64.93;;;;;;;;;;6117128;23;20390;-78
2021/12/26 00:04:03;;;;;;;102.15;66.75;;;;;;;;;;6118027;23;20414;-81
2021/12/26 00:06:30;;;;;;;103.43;65.47;;;;;;;;;;6117209;23;20398;-80
2021/12/26 00:09:00;;;;;;;105.80;68.80;;;;;;;;;;6117247;23;20374;-80
2021/12/26 00:11:27;;;;;;;108.50;68.68;;;;;;;;;;6117133;23;20367;-80
2021/12/26 00:13:55;;;;;;;106.25;64.90;;;;;;;;;;6117854;23;21077;-80
2021/12/26 00:16:22;;;;;;;101.30;66.13;;;;;;;;;;6117672;23;20371;-80
2021/12/26 00:18:49;;;;;;;101.63;62.85;;;;;;;;;;6116933;23;20366;-80
2021/12/26 00:21:18;;;;;;;99.05;62.53;;;;;;;;;;6117515;23;20391;-80
2021/12/26 00:23:45;;;;;;;93.83;60.33;;;;;;;;;;6116878;23;20737;-80
2021/12/26 00:26:14;;;;;;;99.07;62.67;;;;;;;;;;6117377;23;20383;-80
2021/12/26 00:28:41;;;;;;;94.75;60.38;;;;;;;;;;6116920;23;20430;-79
2021/12/26 00:31:08;;;;;;;96.57;60.83;;;;;;;;;;6117651;23;20371;-80
2021/12/26 00:33:36;;;;;;;102.07;61.65;;;;;;;;;;6115617;23;20669;-79
2021/12/26 00:36:04;;;;;;;90.05;58.45;;;;;;;;;;6112926;23;20857;-80
2021/12/26 00:38:32;;;;;;;92.97;59.05;;;;;;;;;;6115282;23;20696;-80
2021/12/26 00:40:59;;;;;;;93.65;58.45;;;;;;;;;;6117163;23;20461;-80
2021/12/26 00:43:28;;;;;;;91.80;58.75;;;;;;;;;;6116734;23;20426;-79
2021/12/26 00:45:55;;;;;;;90.45;57.65;;;;;;;;;;6117360;23;20363;-79
2021/12/26 00:48:22;;;;;;;91.50;56.00;;;;;;;;;;6116260;23;20363;-80
2021/12/26 00:50:49;;;;;;;89.13;55.90;;;;;;;;;;6117347;23;20414;-80
2021/12/26 00:53:16;;;;;;;93.18;58.75;;;;;;;;;;6117420;23;20423;-80
2021/12/26 00:55:44;;;;;;;92.18;57.92;;;;;;;;;;6117267;23;20421;-80
2021/12/26 00:58:11;;;;;;;91.00;57.05;;;;;;;;;;6117590;23;20430;-80
2021/12/26 01:00:42;;;;;;;87.28;56.38;;;;;;;;;;6116553;23;20387;-80
2021/12/26 01:03:11;;;;;;;88.57;56.38;;;;;;;;;;6117305;23;20418;-80
2021/12/26 01:05:43;;;;;;;89.15;56.15;;;;;;;;;;6116990;23;20714;-80
2021/12/26 01:08:13;;;;;;;92.47;56.40;;;;;;;;;;6117197;23;20761;-80
2021/12/26 01:10:43;;;;;;;92.05;56.95;;;;;;;;;;6117377;23;20398;-80
2021/12/26 01:13:16;;;;;;;89.68;54.70;;;;;;;;;;6116910;23;20675;-80
2021/12/26 01:15:47;;;;;;;88.03;54.97;;;;;;;;;;6116300;23;20439;-79
2021/12/26 01:18:15;;;;;;;94.30;57.60;;;;;;;;;;6116421;23;20406;-80
2021/12/26 01:20:49;;;;;;;89.72;56.33;;;;;;;;;;6115697;23;20475;-80
2021/12/26 01:23:19;;;;;;;91.60;55.95;;;;;;;;;;6116558;23;20379;-81
2021/12/26 01:25:46;;;;;;;89.07;55.53;;;;;;;;;;6116325;23;20689;-80
2021/12/26 01:28:13;;;;;;;87.30;54.75;;;;;;;;;;6117316;23;20716;-80
2021/12/26 01:30:41;;;;;;;86.47;54.23;;;;;;;;;;6115864;23;20844;-80
2021/12/26 01:33:13;;;;;;;83.72;52.58;;;;;;;;;;6116536;23;20363;-80
2021/12/26 01:35:41;;;;;;;83.93;53.22;;;;;;;;;;6115945;23;20382;-80
2021/12/26 01:38:13;;;;;;;90.50;54.90;;;;;;;;;;6117280;23;20429;-81
2021/12/26 01:40:43;;;;;;;85.05;54.13;;;;;;;;;;6115425;23;20869;-80
2021/12/26 01:43:10;;;;;;;91.60;54.85;;;;;;;;;;6116581;23;20395;-81
2021/12/26 01:45:37;;;;;;;90.53;54.63;;;;;;;;;;6115007;23;20371;-80
2021/12/26 01:48:06;;;;;;;82.53;52.33;;;;;;;;;;6116665;23;20371;-81
2021/12/26 01:50:36;;;;;;;83.80;51.50;;;;;;;;;;6116137;23;20943;-80
2021/12/26 01:53:04;;;;;;;86.47;52.22;;;;;;;;;;6117324;23;20422;-80
2021/12/26 01:55:39;;;;;;;81.03;51.38;;;;;;;;;;6116196;23;20399;-80
2021/12/26 01:58:08;;;;;;;74.80;49.00;;;;;;;;;;6117012;23;20402;-80
2021/12/26 02:00:35;;;;;;;78.03;48.53;;;;;;;;;;6116636;23;20383;-80
2021/12/26 02:03:03;;;;;;;75.82;48.75;;;;;;;;;;6116629;23;20831;-80
2021/12/26 02:05:29;;;;;;;74.88;48.67;;;;;;;;;;6115857;23;20912;-80
2021/12/26 02:07:58;;;;;;;75.40;47.00;;;;;;;;;;6115894;23;20851;-81
2021/12/26 02:10:24;;;;;;;73.30;47.53;;;;;;;;;;6115273;23;20450;-81
2021/12/26 02:12:51;;;;;;;69.53;45.80;;;;;;;;;;6114894;23;20414;-81
2021/12/26 02:15:18;;;;;;;71.55;46.22;;;;;;;;;;6115886;23;20844;-81
2021/12/26 02:17:45;;;;;;;68.93;45.50;;;;;;;;;;6115317;23;20371;-81
2021/12/26 02:20:25;;;;;;;71.88;46.72;;;;;;;;;;6115470;23;20429;-81
2021/12/26 02:22:57;;;;;;;72.32;45.63;;;;;;;;;;6115852;23;20417;-81
2021/12/26 02:27:30;;;;;;;68.93;45.27;;;;;;;;;;6115178;23;20454;-80
2021/12/26 02:28:17;;;;;;;67.88;45.38;;;;;;;;;;6115445;23;20924;-80
2021/12/26 02:30:44;;;;;;;66.82;44.85;;;;;;;;;;6115553;23;20367;-80
2021/12/26 02:33:12;;;;;;;66.78;44.17;;;;;;;;;;6116509;23;20463;-81
2021/12/26 02:35:41;;;;;;;65.25;43.10;;;;;;;;;;6115382;23;20426;-80
2021/12/26 02:38:09;;;;;;;61.00;41.05;;;;;;;;;;6116115;23;20371;-80
2021/12/26 02:40:36;;;;;;;57.95;40.10;;;;;;;;;;6115615;23;20466;-80
2021/12/26 02:43:05;;;;;;;63.75;43.00;;;;;;;;;;6116896;23;20363;-81
2021/12/26 02:45:32;;;;;;;73.63;46.20;;;;;;;;;;6117219;23;20429;-80
2021/12/26 02:47:59;;;;;;;68.90;42.58;;;;;;;;;;6118561;23;20446;-80
2021/12/26 02:50:28;;;;;;;66.43;42.60;;;;;;;;;;6117398;23;20404;-80
2021/12/26 02:52:58;;;;;;;63.22;42.67;;;;;;;;;;6117310;23;20371;-80
2021/12/26 02:55:25;;;;;;;62.20;41.23;;;;;;;;;;6117176;23;20363;-80
2021/12/26 02:57:55;;;;;;;59.67;40.55;;;;;;;;;;6117186;23;20374;-80
2021/12/26 03:00:25;;;;;;;89.10;44.42;;;;;;;;;;6117059;23;20366;-80
2021/12/26 03:02:54;;;;;;;66.53;40.92;;;;;;;;;;6116775;23;20414;-80
2021/12/26 03:05:22;;;;;;;90.72;42.88;;;;;;;;;;6118137;23;20367;-80
2021/12/26 03:07:49;;;;;;;101.75;45.03;;;;;;;;;;6118383;23;20367;-81
2021/12/26 03:10:22;;;;;;;80.28;43.78;;;;;;;;;;6118242;23;20852;-81
2021/12/26 03:12:50;;;;;;;162.80;46.63;;;;;;;;;;6118082;23;20836;-81
2021/12/26 03:15:18;;;;;;;136.13;47.60;;;;;;;;;;6118090;23;20426;-81
2021/12/26 03:17:45;;;;;;;261.17;48.17;;;;;;;;;;6117882;23;20863;-81
2021/12/26 03:20:15;;;;;;;273.17;46.13;;;;;;;;;;6118099;23;20480;-80
2021/12/26 03:22:44;;;;;;;195.95;44.25;;;;;;;;;;6117393;23;20802;-80
2021/12/26 03:25:12;;;;;;;209.05;44.38;;;;;;;;;;6117791;23;20363;-80
2021/12/26 03:27:40;;;;;;;299.10;48.97;;;;;;;;;;6117765;23;20367;-80
2021/12/26 03:30:08;;;;;;;172.38;44.35;;;;;;;;;;6117889;23;20725;-80
2021/12/26 03:32:35;;;;;;;358.35;45.13;;;;;;;;;;6116736;23;20367;-81
2021/12/26 03:35:02;;;;;;;281.35;44.13;;;;;;;;;;6117333;23;20373;-80
2021/12/26 03:37:29;;;;;;;150.48;41.85;;;;;;;;;;6117678;23;20363;-80
2021/12/26 03:39:56;;;;;;;270.38;46.00;;;;;;;;;;6117749;23;20404;-80
2021/12/26 03:42:23;;;;;;;350.37;44.67;;;;;;;;;;6117060;23;20383;-80
2021/12/26 03:44:52;;;;;;;253.50;40.97;;;;;;;;;;6118074;23;20686;-79
2021/12/26 03:47:19;;;;;;;221.10;45.08;;;;;;;;;;6117837;23;20371;-79
2021/12/26 03:49:47;;;;;;;355.77;46.30;;;;;;;;;;6117681;23;20430;-81
2021/12/26 03:52:14;;;;;;;242.50;43.17;;;;;;;;;;6118154;23;20453;-80
2021/12/26 03:54:41;;;;;;;310.38;44.28;;;;;;;;;;6117464;23;20733;-81
2021/12/26 03:57:08;;;;;;;212.30;44.35;;;;;;;;;;6116852;23;20367;-81
2021/12/26 03:59:35;;;;;;;327.70;46.08;;;;;;;;;;6117069;23;20363;-81
2021/12/26 04:02:03;;;;;;;346.23;44.85;;;;;;;;;;6117334;23;20387;-81
2021/12/26 04:04:30;;;;;;;209.68;43.95;;;;;;;;;;6113264;23;20371;-81
2021/12/26 04:06:58;;;;;;;203.50;41.50;;;;;;;;;;6114465;23;20819;-80
2021/12/26 04:09:25;;;;;;;151.18;40.28;;;;;;;;;;6115617;23;20367;-79
2021/12/26 04:11:52;;;;;;;142.20;39.53;;;;;;;;;;6117052;23;21193;-79
2021/12/26 04:14:19;;;;;;;188.82;41.95;;;;;;;;;;6117472;23;20690;-81
2021/12/26 04:16:47;;;;;;;230.07;45.00;;;;;;;;;;6117555;23;20371;-81
2021/12/26 04:19:15;;;;;;;252.15;48.70;;;;;;;;;;6117562;23;20446;-81
2021/12/26 04:21:43;;;;;;;241.75;49.67;;;;;;;;;;6116439;23;20909;-81
2021/12/26 04:24:10;;;;;;;221.30;48.38;;;;;;;;;;6117547;23;20741;-81
2021/12/26 04:26:37;;;;;;;189.05;46.42;;;;;;;;;;6117433;23;20358;-81
2021/12/26 04:29:04;;;;;;;242.15;47.30;;;;;;;;;;6117824;23;20375;-81
2021/12/26 04:31:31;;;;;;;233.52;44.92;;;;;;;;;;6117034;23;20362;-81
2021/12/26 04:33:58;;;;;;;184.65;43.28;;;;;;;;;;6118508;23;20359;-81
2021/12/26 04:36:26;;;;;;;155.93;45.53;;;;;;;;;;6117091;23;20674;-81
2021/12/26 04:38:53;;;;;;;208.48;45.22;;;;;;;;;;6116086;23;20362;-81
2021/12/26 04:41:20;;;;;;;197.38;46.13;;;;;;;;;;6116302;23;20374;-81
2021/12/26 04:43:47;;;;;;;200.43;46.23;;;;;;;;;;6117706;23;20366;-79
2021/12/26 04:46:14;;;;;;;179.50;46.05;;;;;;;;;;6116961;23;20852;-80
2021/12/26 04:48:44;;;;;;;164.38;47.03;;;;;;;;;;6116299;23;20398;-79
2021/12/26 04:51:12;;;;;;;183.15;43.67;;;;;;;;;;6117247;23;20372;-81
2021/12/26 04:53:41;;;;;;;209.70;45.20;;;;;;;;;;6117771;23;20371;-80
2021/12/26 04:56:08;;;;;;;216.00;47.10;;;;;;;;;;6117828;23;20367;-81
2021/12/26 04:58:36;;;;;;;222.98;50.30;;;;;;;;;;6117637;23;20378;-81
2021/12/26 05:01:04;;;;;;;231.18;52.25;;;;;;;;;;6116804;23;20367;-80
2021/12/26 05:03:31;;;;;;;205.70;54.33;;;;;;;;;;6114942;23;20422;-80
2021/12/26 05:05:58;;;;;;;195.23;49.70;;;;;;;;;;6115182;23;20422;-80
2021/12/26 05:08:25;;;;;;;160.15;43.40;;;;;;;;;;6115344;23;20406;-81
2021/12/26 05:10:55;;;;;;;166.50;43.92;;;;;;;;;;6117250;23;20377;-79
2021/12/26 05:13:23;;;;;;;140.48;43.28;;;;;;;;;;6117249;23;20700;-81
2021/12/26 05:15:50;;;;;;;149.90;42.70;;;;;;;;;;6117237;23;20371;-80
2021/12/26 05:18:16;;;;;;;95.53;40.88;;;;;;;;;;6117431;23;20418;-81
2021/12/26 05:20:44;;;;;;;107.68;36.85;;;;;;;;;;6117568;23;20367;-81
2021/12/26 05:23:11;;;;;;;65.78;38.03;;;;;;;;;;6119251;23;20422;-81
2021/12/26 05:25:38;;;;;;;63.67;34.27;;;;;;;;;;6126983;23;20475;-80
2021/12/26 05:28:07;;;;;;;57.47;32.90;;;;;;;;;;6140386;23;20689;-80
2021/12/26 05:30:34;;;;;;;53.17;34.80;;;;;;;;;;6139538;23;20358;-80
2021/12/26 05:33:00;;;;;;;62.00;33.53;;;;;;;;;;6139902;23;20371;-81
2021/12/26 05:35:27;;;;;;;49.30;33.00;;;;;;;;;;6127569;23;20437;-80
2021/12/26 05:37:55;;;;;;;56.35;34.22;;;;;;;;;;6129883;23;20369;-81
2021/12/26 05:40:21;;;;;;;56.83;35.35;;;;;;;;;;6130743;23;20363;-81
2021/12/26 05:42:49;;;;;;;47.78;33.00;;;;;;;;;;6129619;23;20415;-80
2021/12/26 05:45:18;;;;;;;48.93;32.93;;;;;;;;;;6126334;23;20395;-78
2021/12/26 05:47:45;;;;;;;46.17;33.15;;;;;;;;;;6116814;23;20375;-81
2021/12/26 05:50:14;;;;;;;43.85;30.85;;;;;;;;;;6115962;23;20641;-80
2021/12/26 05:52:42;;;;;;;45.47;31.45;;;;;;;;;;6116670;23;20367;-81
2021/12/26 05:55:10;;;;;;;43.85;31.23;;;;;;;;;;6118140;23;20379;-80
2021/12/26 05:57:37;;;;;;;48.78;30.70;;;;;;;;;;6116970;23;20388;-80
2021/12/26 06:00:06;;;;;;;40.40;31.20;;;;;;;;;;6115604;23;20740;-80
2021/12/26 06:02:34;;;;;;;39.58;32.00;;;;;;;;;;6115750;23;20383;-80
2021/12/26 06:05:01;;;;;;;41.50;32.72;;;;;;;;;;6116075;23;20729;-80
2021/12/26 06:07:28;;;;;;;47.33;32.33;;;;;;;;;;6116182;23;20678;-80
2021/12/26 06:09:55;;;;;;;53.00;31.30;;;;;;;;;;6116151;23;20366;-80
2021/12/26 06:12:22;;;;;;;45.97;32.03;;;;;;;;;;6114611;23;20717;-80
2021/12/26 06:14:48;;;;;;;57.08;32.05;;;;;;;;;;6115115;23;20375;-79
2021/12/26 06:17:16;;;;;;;81.22;31.00;;;;;;;;;;6115901;23;20362;-80
2021/12/26 06:19:44;;;;;;;66.07;32.92;;;;;;;;;;6115569;23;21350;-80
2021/12/26 06:22:10;;;;;;;88.93;32.72;;;;;;;;;;6118046;23;20387;-80
2021/12/26 06:24:37;;;;;;;76.78;34.40;;;;;;;;;;6117625;23;20375;-80
2021/12/26 06:27:05;;;;;;;116.57;34.08;;;;;;;;;;6117414;23;20367;-80
2021/12/26 06:29:32;;;;;;;181.18;39.70;;;;;;;;;;6116842;23;20480;-80
2021/12/26 06:32:01;;;;;;;177.60;37.97;;;;;;;;;;6117732;23;20367;-80
2021/12/26 06:34:28;;;;;;;118.32;34.80;;;;;;;;;;6117389;23;20363;-80
2021/12/26 06:36:56;;;;;;;104.45;34.45;;;;;;;;;;6117814;23;20886;-80
2021/12/26 06:39:23;;;;;;;115.75;34.20;;;;;;;;;;6117921;23;20740;-79
2021/12/26 06:41:50;;;;;;;59.10;36.15;;;;;;;;;;6117560;23;20375;-80
2021/12/26 06:44:17;;;;;;;53.13;34.05;;;;;;;;;;6117424;23;20370;-80
2021/12/26 06:46:43;;;;;;;51.25;33.83;;;;;;;;;;6117176;23;20375;-80
2021/12/26 06:49:10;;;;;;;48.30;29.52;;;;;;;;;;6117284;23;20685;-80
2021/12/26 06:51:37;;;;;;;38.60;29.10;;;;;;;;;;6117298;23;20863;-80
2021/12/26 06:54:05;;;;;;;40.35;29.10;;;;;;;;;;6117767;23;20374;-80
2021/12/26 06:56:32;;;;;;;44.70;32.55;;;;;;;;;;6117426;23;20374;-80
2021/12/26 06:58:59;;;;;;;39.25;30.38;;;;;;;;;;6117744;23;20363;-80
2021/12/26 07:01:26;;;;;;;38.85;31.00;;;;;;;;;;6116763;23;20358;-82
2021/12/26 07:03:54;;;;;;;45.22;32.40;;;;;;;;;;6116969;23;20389;-82
2021/12/26 07:06:21;;;;;;;43.38;31.02;;;;;;;;;;6118245;23;20380;-82
2021/12/26 07:08:48;;;;;;;57.38;33.83;;;;;;;;;;6117427;23;20430;-82
2021/12/26 07:11:17;;;;;;;83.00;35.17;;;;;;;;;;6117746;23;20848;-81
2021/12/26 07:13:44;;;;;;;66.07;34.53;;;;;;;;;;6117220;23;20418;-82
2021/12/26 07:16:11;;;;;;;70.47;33.97;;;;;;;;;;6118111;23;20367;-81
2021/12/26 07:18:38;;;;;;;83.37;33.27;;;;;;;;;;6117528;23;20431;-83
2021/12/26 07:21:05;;;;;;;69.50;33.78;;;;;;;;;;6117737;23;20367;-83
2021/12/26 07:23:31;;;;;;;80.10;35.30;;;;;;;;;;6117450;23;20390;-82
2021/12/26 07:25:58;;;;;;;113.90;36.53;;;;;;;;;;6118941;23;20371;-83
2021/12/26 07:28:27;;;;;;;118.97;36.27;;;;;;;;;;6118826;23;20457;-83
2021/12/26 07:30:54;;;;;;;115.60;38.45;;;;;;;;;;6117633;23;20434;-82
2021/12/26 07:33:20;;;;;;;116.97;36.92;;;;;;;;;;6117233;23;20363;-83
2021/12/26 07:35:47;;;;;;;95.03;37.50;;;;;;;;;;6115853;23;20522;-83
2021/12/26 07:38:14;;;;;;;76.43;36.08;;;;;;;;;;6115579;23;21074;-83
2021/12/26 07:40:41;;;;;;;80.03;36.78;;;;;;;;;;6115381;23;20748;-82
2021/12/26 07:43:08;;;;;;;101.45;36.78;;;;;;;;;;6117307;23;20445;-82
2021/12/26 07:45:36;;;;;;;95.53;36.40;;;;;;;;;;6116528;23;20355;-82
2021/12/26 07:48:05;;;;;;;85.93;33.85;;;;;;;;;;6116329;23;20741;-83
2021/12/26 07:50:32;;;;;;;98.95;35.30;;;;;;;;;;6117467;23;20367;-82
2021/12/26 07:53:05;;;;;;;98.47;33.93;;;;;;;;;;6118143;23;20843;-82
2021/12/26 07:55:31;;;;;;;66.93;34.80;;;;;;;;;;6118156;23;20371;-82
2021/12/26 07:57:58;;;;;;;65.55;35.08;;;;;;;;;;6117708;23;20378;-81
2021/12/26 08:00:25;;;;;;;84.63;35.97;;;;;;;;;;6117528;23;20379;-83
2021/12/26 08:02:54;;;;;;;85.50;35.93;;;;;;;;;;6116473;23;20386;-83
2021/12/26 08:05:21;;;;;;;86.35;37.88;;;;;;;;;;6117731;23;21054;-84
2021/12/26 08:07:48;;;;;;;53.88;36.03;;;;;;;;;;6117658;23;20363;-84
2021/12/26 08:10:15;;;;;;;50.20;35.53;;;;;;;;;;6118338;23;20435;-83
2021/12/26 08:12:42;;;;;;;51.25;33.95;;;;;;;;;;6117489;23;20847;-85
2021/12/26 08:15:10;;;;;;;54.83;34.25;;;;;;;;;;6118707;23;20446;-84
2021/12/26 08:17:38;;;;;;;47.00;31.90;;;;;;;;;;6117134;23;20422;-83
2021/12/26 08:20:08;;;;;;;43.50;32.83;;;;;;;;;;6117498;23;20382;-85
2021/12/26 08:22:36;;;;;;;42.63;32.22;;;;;;;;;;6117172;23;20394;-84
2021/12/26 08:25:04;;;;;;;42.13;32.88;;;;;;;;;;6118030;23;20910;-84
2021/12/26 08:27:32;;;;;;;41.28;32.72;;;;;;;;;;6116637;23;20378;-85
2021/12/26 08:29:59;;;;;;;40.88;32.58;;;;;;;;;;6117611;23;20458;-84
2021/12/26 08:32:27;;;;;;;42.83;33.95;;;;;;;;;;6117565;23;20430;-84
2021/12/26 08:34:53;;;;;;;43.03;33.97;;;;;;;;;;6116862;23;20375;-84
2021/12/26 08:37:23;;;;;;;45.45;35.72;;;;;;;;;;6117026;23;20363;-84
2021/12/26 08:39:50;;;;;;;40.97;33.03;;;;;;;;;;6116983;23;20422;-84
2021/12/26 08:42:18;;;;;;;41.13;33.03;;;;;;;;;;6117066;23;20379;-85
2021/12/26 08:44:45;;;;;;;41.30;33.17;;;;;;;;;;6116516;23;20872;-86
2021/12/26 08:47:13;;;;;;;42.83;33.05;;;;;;;;;;6117630;23;20371;-83
2021/12/26 08:49:40;;;;;;;42.75;33.75;;;;;;;;;;6115650;23;20381;-84
2021/12/26 08:52:08;;;;;;;42.38;34.05;;;;;;;;;;6113968;23;20371;-84
2021/12/26 08:54:37;;;;;;;41.97;33.50;;;;;;;;;;6116331;23;20381;-84
2021/12/26 08:57:05;;;;;;;46.22;36.42;;;;;;;;;;6116352;23;20370;-84
2021/12/26 08:59:32;;;;;;;42.15;33.50;;;;;;;;;;6116034;23;20367;-84
2021/12/26 09:02:00;;;;;;;47.28;37.17;;;;;;;;;;6117140;23;20429;-84
2021/12/26 09:04:27;;;;;;;40.95;33.83;;;;;;;;;;6116494;23;20402;-84
2021/12/26 09:06:53;;;;;;;43.78;34.70;;;;;;;;;;6116100;23;20367;-84
2021/12/26 09:09:21;;;;;;;43.65;34.78;;;;;;;;;;6116307;23;20422;-84
2021/12/26 09:11:50;;;;;;;42.67;35.13;;;;;;;;;;6116613;23;20371;-84
2021/12/26 09:14:16;;;;;;;43.08;33.65;;;;;;;;;;6116276;23;20843;-84
2021/12/26 09:16:44;;;;;;;43.83;34.63;;;;;;;;;;6116079;23;20446;-84
2021/12/26 09:19:10;;;;;;;48.28;39.28;;;;;;;;;;6117322;23;20453;-84
2021/12/26 09:21:37;;;;;;;50.40;40.95;;;;;;;;;;6114776;23;20375;-84
2021/12/26 09:24:05;;;;;;;51.30;40.55;;;;;;;;;;6115790;23;20387;-84
2021/12/26 09:26:32;;;;;;;52.42;39.90;;;;;;;;;;6115814;23;20779;-84
2021/12/26 09:29:00;;;;;;;50.70;39.55;;;;;;;;;;6115605;23;20670;-83
2021/12/26 09:31:27;;;;;;;49.17;40.65;;;;;;;;;;6115598;23;20831;-84
2021/12/26 09:33:54;;;;;;;50.08;40.92;;;;;;;;;;6115868;23;20418;-84
2021/12/26 09:36:21;;;;;;;51.05;41.97;;;;;;;;;;6117240;23;20424;-84
2021/12/26 09:38:50;;;;;;;49.97;41.90;;;;;;;;;;6118085;23;20366;-85
2021/12/26 09:41:17;;;;;;;49.10;40.67;;;;;;;;;;6117837;23;20712;-83
2021/12/26 09:46:21;;;;;;;48.30;39.97;;;;;;;;;;6116067;23;20416;-88
2021/12/26 09:48:48;;;;;;;47.05;38.95;;;;;;;;;;6114393;23;20434;-88
2021/12/26 09:51:15;;;;;;;49.40;41.60;;;;;;;;;;6089678;23;20402;-89
2021/12/26 09:53:43;;;;;;;51.90;42.88;;;;;;;;;;6114402;23;20371;-88
2021/12/26 09:56:10;;;;;;;56.85;44.97;;;;;;;;;;6089651;23;20428;-89
2021/12/26 09:58:52;;;;;;;51.90;42.93;;;;;;;;;;6114976;23;20474;-89
2021/12/26 10:01:29;;;;;;;50.05;40.60;;;;;;;;;;6114972;23;20371;-89
2021/12/26 10:03:56;;;;;;;47.65;38.42;;;;;;;;;;6114901;23;20447;-88
2021/12/26 10:06:23;;;;;;;45.55;36.95;;;;;;;;;;6114571;23;20867;-89
2021/12/26 10:08:53;;;;;;;44.10;36.63;;;;;;;;;;6115692;23;20371;-89
2021/12/26 10:11:20;;;;;;;47.40;38.40;;;;;;;;;;6114211;23;20371;-89
2021/12/26 10:13:49;;;;;;;47.13;37.40;;;;;;;;;;6115577;23;20434;-84
2021/12/26 10:16:18;;;;;;;48.58;38.33;;;;;;;;;;6115843;23;20370;-88
2021/12/26 10:18:56;;;;;;;48.80;39.22;;;;;;;;;;6115176;23;20374;-87
2021/12/26 10:21:30;;;;;;;49.55;40.42;;;;;;;;;;6114393;23;20371;-88
2021/12/26 10:23:59;;;;;;;50.35;38.75;;;;;;;;;;6115476;23;20442;-87
2021/12/26 10:26:31;;;;;;;48.22;38.53;;;;;;;;;;6114695;23;20404;-87
2021/12/26 10:29:26;;;;;;;47.33;39.13;;;;;;;;;;6116885;23;20367;-87
2021/12/26 10:32:06;;;;;;;49.00;39.00;;;;;;;;;;6090904;23;20383;-87
2021/12/26 10:34:45;;;;;;;49.15;39.17;;;;;;;;;;6116664;23;20389;-87
2021/12/26 10:37:18;;;;;;;48.78;38.63;;;;;;;;;;6117098;23;20377;-88
2021/12/26 10:39:53;;;;;;;50.67;40.25;;;;;;;;;;6116587;23;20367;-87
2021/12/26 10:42:24;;;;;;;51.97;41.22;;;;;;;;;;6116875;23;20696;-87
2021/12/26 10:44:57;;;;;;;51.20;41.38;;;;;;;;;;6116003;23;20434;-88
2021/12/26 10:47:29;;;;;;;51.08;41.20;;;;;;;;;;6116389;23;20405;-87
2021/12/26 10:50:08;;;;;;;52.50;41.57;;;;;;;;;;6116246;23;21278;-87
2021/12/26 10:52:41;;;;;;;52.77;41.87;;;;;;;;;;6115940;23;20367;-85
2021/12/26 10:55:14;;;;;;;51.10;41.13;;;;;;;;;;6116849;23;20846;-89
2021/12/26 10:57:45;;;;;;;51.10;41.45;;;;;;;;;;6116870;23;20454;-90
2021/12/26 11:00:22;;;;;;;51.70;41.55;;;;;;;;;;6115733;23;20371;-90
2021/12/26 11:03:00;;;;;;;51.40;41.22;;;;;;;;;;6116318;23;20358;-87
2021/12/26 11:05:39;;;;;;;51.60;41.67;;;;;;;;;;6092122;23;20413;-88
2021/12/26 11:08:13;;;;;;;49.37;40.13;;;;;;;;;;6118165;23;20367;-89
2021/12/26 11:10:45;;;;;;;48.78;40.58;;;;;;;;;;6117761;23;21201;-89
2021/12/26 11:13:23;;;;;;;52.17;41.37;;;;;;;;;;6118481;23;20473;-89
2021/12/26 11:15:56;;;;;;;52.88;42.35;;;;;;;;;;6116953;23;20886;-90
2021/12/26 11:18:27;;;;;;;52.30;42.38;;;;;;;;;;6117095;23;20858;-88
2021/12/26 11:20:59;;;;;;;49.80;40.90;;;;;;;;;;6091782;23;20382;-88
2021/12/26 11:23:29;;;;;;;51.78;41.55;;;;;;;;;;6117423;23;20946;-86
2021/12/26 11:25:58;;;;;;;49.10;41.67;;;;;;;;;;6117901;23;20378;-86
2021/12/26 11:28:28;;;;;;;50.80;41.17;;;;;;;;;;6117682;23;20910;-88
2021/12/26 11:30:57;;;;;;;53.20;42.85;;;;;;;;;;6118567;23;20860;-84
2021/12/26 11:33:25;;;;;;;53.42;43.03;;;;;;;;;;6116851;23;20363;-88
2021/12/26 11:35:54;;;;;;;53.78;43.25;;;;;;;;;;6113890;23;20402;-88
2021/12/26 11:38:24;;;;;;;56.08;47.00;;;;;;;;;;6114628;23;20377;-89
2021/12/26 11:40:53;;;;;;;57.75;47.90;;;;;;;;;;6115723;23;20363;-89
2021/12/26 11:43:47;;;;;;;55.55;46.95;;;;;;;;;;6116901;23;20383;-89
2021/12/26 11:46:26;;;;;;;53.75;44.30;;;;;;;;;;6115968;23;20371;-88
2021/12/26 11:49:33;;;;;;;54.15;44.90;;;;;;;;;;6116346;23;20371;-89
2021/12/26 11:52:30;;;;;;;54.55;44.58;;;;;;;;;;6116325;23;20375;-89
2021/12/26 11:55:20;;;;;;;53.92;44.72;;;;;;;;;;6116633;23;20418;-89
2021/12/26 11:58:18;;;;;;;51.53;43.17;;;;;;;;;;6115513;23;20968;-88
2021/12/26 12:00:51;;;;;;;52.78;44.13;;;;;;;;;;6115680;23;20382;-89
2021/12/26 12:03:20;;;;;;;53.60;44.75;;;;;;;;;;6117495;23;20386;-89
2021/12/26 12:05:48;;;;;;;52.17;43.42;;;;;;;;;;6116310;23;20945;-89
2021/12/26 12:08:17;;;;;;;53.92;42.70;;;;;;;;;;6117272;23;20377;-89
2021/12/26 12:10:56;;;;;;;53.08;44.78;;;;;;;;;;6116037;23;20414;-89
2021/12/26 12:13:47;;;;;;;50.80;43.13;;;;;;;;;;6116862;23;20370;-89
2021/12/26 12:16:29;;;;;;;51.10;43.67;;;;;;;;;;6116961;23;20369;-88
2021/12/26 12:18:59;;;;;;;53.42;44.67;;;;;;;;;;6116162;23;20407;-89
2021/12/26 12:21:37;;;;;;;54.05;44.13;;;;;;;;;;6116775;23;20375;-89
2021/12/26 12:24:10;;;;;;;51.13;43.22;;;;;;;;;;6115970;23;20764;-88
2021/12/26 12:26:41;;;;;;;51.92;44.25;;;;;;;;;;6116666;23;20378;-90
2021/12/26 12:29:10;;;;;;;53.45;44.08;;;;;;;;;;6117108;23;20366;-89
2021/12/26 12:31:37;;;;;;;52.23;44.63;;;;;;;;;;6116887;23;20706;-89
2021/12/26 12:34:06;;;;;;;54.78;45.10;;;;;;;;;;6116038;23;20693;-88
2021/12/26 12:36:38;;;;;;;53.50;44.50;;;;;;;;;;6115875;23;20908;-88
2021/12/26 12:39:19;;;;;;;48.65;42.25;;;;;;;;;;6116740;23;20378;-89
2021/12/26 12:41:49;;;;;;;49.35;43.85;;;;;;;;;;6117130;23;20371;-89
2021/12/26 12:44:31;;;;;;;53.90;43.00;;;;;;;;;;6116552;23;20403;-89
2021/12/26 12:47:02;;;;;;;49.63;41.35;;;;;;;;;;6116487;23;20359;-88
2021/12/26 12:49:48;;;;;;;51.58;42.05;;;;;;;;;;6115257;23;20859;-89
2021/12/26 12:52:38;;;;;;;51.55;42.60;;;;;;;;;;6116392;23;20378;-89
2021/12/26 12:55:06;;;;;;;48.35;41.35;;;;;;;;;;6115074;23;20417;-88
2021/12/26 12:57:37;;;;;;;50.03;40.73;;;;;;;;;;6113676;23;20371;-89
2021/12/26 13:00:27;;;;;;;50.63;40.85;;;;;;;;;;6115965;23;20430;-88
2021/12/26 13:02:59;;;;;;;47.90;40.47;;;;;;;;;;6114708;23;20887;-89
2021/12/26 13:05:28;;;;;;;48.10;40.47;;;;;;;;;;6116078;23;20395;-89
2021/12/26 13:07:58;;;;;;;47.28;40.33;;;;;;;;;;6116175;23;20960;-89
2021/12/26 13:10:25;;;;;;;49.53;40.90;;;;;;;;;;6115431;23;20399;-88
2021/12/26 13:13:04;;;;;;;45.20;39.90;;;;;;;;;;6116361;23;20366;-89
2021/12/26 13:15:31;;;;;;;49.70;40.60;;;;;;;;;;6115115;23;20429;-88
2021/12/26 13:18:04;;;;;;;48.53;40.67;;;;;;;;;;6115961;23;20371;-89
2021/12/26 13:20:32;;;;;;;49.97;40.88;;;;;;;;;;6114846;23;20370;-89
2021/12/26 13:23:04;;;;;;;49.30;41.08;;;;;;;;;;6115690;23;20418;-89
2021/12/26 13:25:34;;;;;;;48.15;40.58;;;;;;;;;;6115482;23;20397;-89
2021/12/26 13:28:18;;;;;;;47.35;40.28;;;;;;;;;;6115527;23;20735;-88
2021/12/26 13:30:48;;;;;;;48.75;40.25;;;;;;;;;;6115270;23;20374;-89
2021/12/26 13:33:16;;;;;;;52.85;42.72;;;;;;;;;;6116161;23;20816;-89
2021/12/26 13:35:43;;;;;;;49.45;40.78;;;;;;;;;;6115624;23;20367;-88
2021/12/26 13:38:11;;;;;;;50.10;41.53;;;;;;;;;;6116587;23;20686;-89
2021/12/26 13:40:40;;;;;;;46.58;39.75;;;;;;;;;;6115897;23;20363;-88
2021/12/26 13:43:09;;;;;;;47.78;39.78;;;;;;;;;;6116004;23;20363;-89
2021/12/26 13:45:39;;;;;;;50.00;40.17;;;;;;;;;;6114896;23;20402;-89
2021/12/26 13:48:08;;;;;;;49.33;40.03;;;;;;;;;;6115957;23;20449;-88
2021/12/26 13:50:35;;;;;;;47.83;39.28;;;;;;;;;;6115651;23;20363;-88
2021/12/26 13:53:05;;;;;;;45.85;39.17;;;;;;;;;;6114561;23;20370;-89
2021/12/26 13:55:35;;;;;;;50.28;40.92;;;;;;;;;;6115246;23;20370;-89
2021/12/26 13:58:05;;;;;;;51.65;41.28;;;;;;;;;;6116053;23;20720;-88
2021/12/26 14:00:46;;;;;;;57.08;44.00;;;;;;;;;;6115458;23;20391;-89
2021/12/26 14:03:13;;;;;;;49.00;39.55;;;;;;;;;;6115506;23;20434;-88
2021/12/26 14:05:40;;;;;;;49.92;39.95;;;;;;;;;;6114598;23;20741;-88
2021/12/26 14:08:14;;;;;;;45.80;37.15;;;;;;;;;;6116062;23;20886;-88
2021/12/26 14:10:42;;;;;;;45.95;38.88;;;;;;;;;;6115098;23;20386;-88
2021/12/26 14:13:11;;;;;;;47.20;38.80;;;;;;;;;;6115329;23;20371;-88
2021/12/26 14:15:45;;;;;;;51.80;41.97;;;;;;;;;;6115588;23;20430;-88
2021/12/26 14:18:16;;;;;;;46.95;39.28;;;;;;;;;;6116105;23;20446;-88
2021/12/26 14:20:50;;;;;;;45.20;38.33;;;;;;;;;;6115152;23;20378;-88
2021/12/26 14:23:21;;;;;;;51.10;40.08;;;;;;;;;;6116171;23;20371;-88
2021/12/26 14:25:49;;;;;;;50.22;39.78;;;;;;;;;;6114913;23;20970;-88
2021/12/26 14:28:17;;;;;;;50.45;39.05;;;;;;;;;;6116025;23;20462;-88
2021/12/26 14:30:47;;;;;;;50.95;41.33;;;;;;;;;;6115580;23;20422;-88